TimeCDT,TemperatureF,Dew PointF,Humidity,Sea Level PressureIn,VisibilityMPH,Wind Direction,Wind SpeedMPH,Gust SpeedMPH,PrecipitationIn,Events,Conditions,WindDirDegrees,DateUTC
12:58 AM,75.6,73.0,92,29.98,10.0,SSE,9.2,-,N/A,,Clear,160,2013-06-24 05:58:00
1:52 AM,75.2,73.4,94,30.01,10.0,South,6.9,-,N/A,,Mostly Cloudy,170,2013-06-24 06:52:00
1:58 AM,75.0,74.3,98,29.99,10.0,South,8.1,-,N/A,,Mostly Cloudy,170,2013-06-24 06:58:00
2:43 AM,77.0,75.2,94,30.00,10.0,South,9.2,-,N/A,,Overcast,170,2013-06-24 07:43:00
2:52 AM,77.0,75.2,94,30.00,10.0,South,10.4,-,N/A,,Overcast,170,2013-06-24 07:52:00
2:58 AM,76.5,75.2,96,29.97,10.0,South,9.2,-,N/A,,Overcast,170,2013-06-24 07:58:00
3:25 AM,77.0,75.2,94,30.00,10.0,South,10.4,-,N/A,,Overcast,170,2013-06-24 08:25:00
3:58 AM,77.0,75.2,94,29.97,10.0,South,13.8,21.9,N/A,,Overcast,170,2013-06-24 08:58:00
4:07 AM,77.0,75.2,94,30.00,10.0,South,12.7,-,N/A,,Overcast,170,2013-06-24 09:07:00
4:58 AM,76.8,75.6,96,29.97,10.0,SSE,9.2,-,N/A,,Overcast,160,2013-06-24 09:58:00
5:25 AM,77.0,75.2,94,30.00,10.0,SSE,9.2,-,N/A,,Overcast,160,2013-06-24 10:25:00
5:58 AM,76.3,75.7,98,29.99,10.0,SSE,11.5,-,N/A,,Overcast,160,2013-06-24 10:58:00
6:07 AM,77.0,75.2,94,30.01,10.0,SSE,10.4,-,N/A,,Overcast,160,2013-06-24 11:07:00
6:34 AM,75.2,75.2,100,30.01,10.0,SSE,8.1,-,N/A,,Overcast,160,2013-06-24 11:34:00
6:43 AM,75.2,75.2,100,30.02,10.0,SSE,6.9,-,N/A,,Overcast,160,2013-06-24 11:43:00
6:52 AM,75.2,75.2,100,30.02,10.0,SSE,8.1,-,N/A,,Overcast,160,2013-06-24 11:52:00
6:58 AM,75.0,75.0,100,30.00,10.0,SSE,8.1,-,N/A,,Mostly Cloudy,160,2013-06-24 11:58:00
7:58 AM,77.0,76.1,97,30.01,10.0,South,12.7,-,N/A,,Overcast,170,2013-06-24 12:58:00
8:25 AM,78.8,75.2,89,30.04,10.0,South,10.4,-,N/A,,Mostly Cloudy,170,2013-06-24 13:25:00
8:43 AM,78.8,75.2,89,30.04,10.0,SSE,13.8,-,N/A,,Overcast,160,2013-06-24 13:43:00
8:58 AM,79.7,75.7,88,30.02,10.0,South,15.0,-,N/A,,Mostly Cloudy,170,2013-06-24 13:58:00
9:25 AM,82.4,75.2,79,30.04,10.0,South,16.1,23.0,N/A,,Overcast,170,2013-06-24 14:25:00
9:58 AM,83.7,75.6,76,30.02,10.0,South,17.3,23.0,N/A,,Mostly Cloudy,180,2013-06-24 14:58:00
10:07 AM,84.2,75.2,74,30.04,10.0,South,17.3,26.5,N/A,,Overcast,170,2013-06-24 15:07:00
10:25 AM,86.0,73.4,66,30.04,10.0,South,19.6,27.6,N/A,,Overcast,180,2013-06-24 15:25:00
10:58 AM,86.7,73.6,65,30.01,10.0,South,17.3,26.5,N/A,,Mostly Cloudy,170,2013-06-24 15:58:00
11:07 AM,87.8,73.4,62,30.04,10.0,South,19.6,27.6,N/A,,Mostly Cloudy,170,2013-06-24 16:07:00
11:34 AM,89.6,73.4,59,30.03,10.0,South,20.7,28.8,N/A,,Mostly Cloudy,170,2013-06-24 16:34:00
11:58 AM,91.6,71.4,52,30.01,10.0,South,19.6,27.6,N/A,,Scattered Clouds,170,2013-06-24 16:58:00
12:58 PM,93.0,69.6,46,29.99,10.0,SSE,23.0,28.8,N/A,,Partly Cloudy,160,2013-06-24 17:58:00
1:58 PM,94.3,69.3,44,29.96,10.0,South,16.1,23.0,N/A,,Scattered Clouds,170,2013-06-24 18:58:00
2:58 PM,94.5,68.4,42,29.94,10.0,South,13.8,-,N/A,,Mostly Cloudy,170,2013-06-24 19:58:00
3:58 PM,97.0,68.4,39,29.92,10.0,SSE,18.4,25.3,N/A,,Partly Cloudy,160,2013-06-24 20:58:00
4:58 PM,95.9,66.7,38,29.90,10.0,South,19.6,31.1,N/A,,Partly Cloudy,170,2013-06-24 21:58:00
5:58 PM,95.5,65.7,37,29.89,10.0,SSE,19.6,25.3,N/A,,Clear,160,2013-06-24 22:58:00
6:58 PM,92.7,67.5,43,29.88,10.0,SSE,21.9,27.6,N/A,,Clear,160,2013-06-24 23:58:00
7:58 PM,89.1,66.7,48,29.91,10.0,SSE,16.1,-,N/A,,Clear,160,2013-06-25 00:58:00
8:58 PM,85.3,68.7,57,29.91,10.0,SSE,18.4,-,N/A,,Clear,150,2013-06-25 01:58:00
9:58 PM,82.6,70.9,68,29.94,10.0,SSE,16.1,-,N/A,,Clear,150,2013-06-25 02:58:00
10:58 PM,80.4,72.3,76,29.96,10.0,SSE,15.0,21.9,N/A,,Clear,160,2013-06-25 03:58:00
11:58 PM,78.6,74.1,86,29.99,10.0,SSE,13.8,-,N/A,,Clear,160,2013-06-25 04:58:00